Decoded Metar for UBBB (BAKU in AZERBAIJAN) (IATA:BAK) | Meteo·Mobile Aviation Weather
aviador You're here:

UBBB Decoded Metar

BAKU in AZERBAIJAN
Report Time2019-01-18 13:00:00
UTC Time2019-01-18 13:20:49
Flight Rules vfr VFR
Wind330° at 16 kt
W.Decomp.*RWY 34: 15.5 kt HW 3.9 kt LCW
RWY 36: 13.3 kt HW 8.9 kt LCW
W.Rank330° ranks 1
Current wind is above 330° avg. (14.7)
Visibility9999 m
Phenomena:N/A
Clouds:N/A
Expected CloudBase > 2,800 ft AGL from Temp-Dew spread
CeilingNone
Temp04°C (ISA -11)
Dew Point-3°C (61% RH)
AAT-4.1°C
QNH1022 hPa
Density Alt-1,594 ft
Elevation-20 ft
Report Wrong Elevation
Raw Report
UBBB 181300Z 33016KT CAVOK 04/M03 Q1022 R88/CLRD// NOSIG=

Extra information for UBBB:More info

Metar Taf Metar & Taf Last 4 Metars F.Rules Stats Wind Profile Meteogram Temp Stats Airport Information Weather charts Add Link Nearby VenuesMetar ALERT Operation Metar Decoded Social comments